Time;durP1;ratioP1;P1;durP2;ratioP2;P2;SDS_P1;SDS_P2;PMS_P1;PMS_P2;Temp;Humidity;BMP_temperature;BMP_pressure;BME280_temperature;BME280_humidity;BME280_pressure;Samples;Min_cycle;Max_cycle;Signal;HPM_P1;HPM_P2
2022/12/06 00:02:50;;;;;;;43.40;24.40;;;;;;;4.48;82.65;100378.09;126846;1280;98617;-71
2022/12/06 00:05:58;;;;;;;42.80;24.90;;;;;;;4.49;82.53;100374.48;126793;1277;99136;-72
2022/12/06 00:09:01;;;;;;;39.50;23.70;;;;;;;4.49;82.57;100364.79;126934;1280;111145;-72
2022/12/06 00:12:04;;;;;;;39.10;24.30;;;;;;;4.48;82.44;100356.42;126895;1274;99141;-73
2022/12/06 00:15:08;;;;;;;44.30;25.60;;;;;;;4.45;82.50;100355.61;126907;1287;97983;-73
2022/12/06 00:18:11;;;;;;;39.40;22.70;;;;;;;4.41;82.52;100348.67;126972;1282;111290;-72
2022/12/06 00:21:16;;;;;;;36.00;21.70;;;;;;;4.39;82.65;100351.63;126902;1287;98443;-72
2022/12/06 00:24:20;;;;;;;36.40;20.80;;;;;;;4.40;82.63;100349.31;126876;1281;111250;-71
2022/12/06 00:27:23;;;;;;;38.00;23.80;;;;;;;4.44;82.69;100347.77;126943;1282;111077;-72
2022/12/06 00:30:25;;;;;;;44.20;24.50;;;;;;;4.48;82.63;100345.66;126703;1281;98005;-72
2022/12/06 00:33:29;;;;;;;39.60;23.30;;;;;;;4.53;82.47;100343.38;126652;1285;98686;-71
2022/12/06 00:36:34;;;;;;;39.60;24.20;;;;;;;4.56;82.54;100340.75;126689;1294;98745;-72
2022/12/06 00:39:37;;;;;;;40.60;24.60;;;;;;;4.55;82.49;100339.88;126741;1288;111130;-72
2022/12/06 00:42:39;;;;;;;39.30;25.30;;;;;;;4.55;82.47;100334.11;126900;1295;97976;-73
2022/12/06 00:45:43;;;;;;;41.10;24.80;;;;;;;4.54;82.62;100337.70;126884;1280;99916;-72
2022/12/06 00:48:47;;;;;;;40.50;23.60;;;;;;;4.51;82.68;100337.91;126924;1281;101456;-73
2022/12/06 00:51:49;;;;;;;39.30;21.90;;;;;;;4.49;82.68;100339.98;126619;1281;111242;-73
2022/12/06 00:54:52;;;;;;;38.40;23.50;;;;;;;4.49;82.66;100335.21;126712;1274;98763;-73
2022/12/06 00:57:58;;;;;;;40.00;22.80;;;;;;;4.53;82.68;100334.24;126692;1288;97978;-72
2022/12/06 01:01:08;;;;;;;40.90;25.00;;;;;;;4.55;82.79;100327.59;126562;1278;110985;-73
2022/12/06 01:04:11;;;;;;;41.30;23.90;;;;;;;4.54;82.75;100326.54;126735;1295;111118;-72
2022/12/06 01:07:13;;;;;;;39.20;24.20;;;;;;;4.54;82.67;100329.20;126728;1281;98750;-72
2022/12/06 01:10:16;;;;;;;38.20;23.60;;;;;;;4.54;82.65;100323.73;126907;1279;98072;-72
2022/12/06 01:13:19;;;;;;;40.90;24.90;;;;;;;4.52;82.61;100317.91;126869;1274;101469;-73
2022/12/06 01:16:24;;;;;;;39.40;24.90;;;;;;;4.48;82.79;100319.45;126771;1279;98423;-74
2022/12/06 01:19:27;;;;;;;40.00;23.30;;;;;;;4.43;82.69;100319.83;126733;1288;111087;-72
2022/12/06 01:22:30;;;;;;;35.60;22.00;;;;;;;4.40;82.80;100316.86;126856;1281;98979;-72
2022/12/06 01:25:32;;;;;;;36.40;21.70;;;;;;;4.41;82.70;100308.89;126766;1274;97996;-72
2022/12/06 01:28:35;;;;;;;39.60;23.30;;;;;;;4.44;82.78;100304.11;126736;1288;99173;-73
2022/12/06 01:31:38;;;;;;;40.80;24.20;;;;;;;4.45;82.76;100299.96;126940;1278;97977;-73
2022/12/06 01:34:40;;;;;;;40.30;24.40;;;;;;;4.46;82.79;100297.73;126857;1281;98009;-73
2022/12/06 01:37:43;;;;;;;39.10;23.30;;;;;;;4.47;82.82;100295.43;126689;1280;98760;-71
2022/12/06 01:40:47;;;;;;;41.70;24.80;;;;;;;4.46;82.69;100292.96;126818;1288;99154;-72
2022/12/06 01:43:50;;;;;;;39.90;23.80;;;;;;;4.43;82.76;100286.85;126887;1279;98382;-72
2022/12/06 01:46:53;;;;;;;42.80;25.10;;;;;;;4.40;82.85;100280.73;126673;1279;99201;-71
2022/12/06 01:50:01;;;;;;;43.00;23.70;;;;;;;4.33;82.76;100274.54;126762;1281;98079;-72
2022/12/06 01:53:07;;;;;;;41.40;23.70;;;;;;;4.29;82.91;100271.49;126979;1282;110995;-72
2022/12/06 01:56:11;;;;;;;39.10;22.10;;;;;;;4.30;82.92;100266.34;126625;1288;111144;-73
2022/12/06 01:59:14;;;;;;;43.80;24.10;;;;;;;4.31;82.96;100271.02;126597;1277;111270;-72
2022/12/06 02:02:17;;;;;;;39.20;24.30;;;;;;;4.31;82.91;100265.50;126620;1278;111221;-72
2022/12/06 02:05:20;;;;;;;39.80;24.50;;;;;;;4.35;82.93;100261.92;126718;1281;98025;-72
2022/12/06 02:08:24;;;;;;;42.20;25.30;;;;;;;4.38;82.89;100254.34;126839;1281;98759;-72
2022/12/06 02:11:26;;;;;;;40.90;24.70;;;;;;;4.37;82.94;100252.80;126928;1287;110203;-73
2022/12/06 02:14:32;;;;;;;47.00;26.90;;;;;;;4.35;82.78;100250.10;126746;1278;98347;-72
2022/12/06 02:17:44;;;;;;;44.60;27.40;;;;;;;4.32;82.97;100252.26;126813;1285;111332;-72
2022/12/06 02:20:51;;;;;;;43.00;25.60;;;;;;;4.28;82.88;100251.88;126772;1287;111157;-73
2022/12/06 02:24:34;;;;;;;44.80;26.50;;;;;;;4.25;82.92;100252.59;127001;1288;111118;-72
2022/12/06 02:28:07;;;;;;;44.10;24.60;;;;;;;4.26;83.11;100249.00;126671;1288;111131;-72
2022/12/06 02:31:16;;;;;;;59.80;35.50;;;;;;;4.30;82.97;100246.58;126899;1279;111297;-71
2022/12/06 02:34:29;;;;;;;104.90;53.90;;;;;;;4.36;83.06;100244.27;126618;1287;111135;-73
2022/12/06 02:37:32;;;;;;;;;;;;;;;4.38;83.01;100239.73;126636;1279;111069;-73
2022/12/06 02:40:38;;;;;;;63.70;34.30;;;;;;;4.38;82.93;100235.60;126543;1278;111308;-71
2022/12/06 02:43:47;;;;;;;74.50;39.20;;;;;;;4.37;83.02;100242.04;126586;1281;111220;-71
2022/12/06 02:46:51;;;;;;;60.80;32.70;;;;;;;4.38;83.13;100243.08;126640;1288;111161;-73
2022/12/06 02:49:56;;;;;;;58.10;34.80;;;;;;;4.35;82.94;100236.41;126467;1277;111333;-72
2022/12/06 02:53:01;;;;;;;58.30;33.50;;;;;;;4.32;83.01;100236.91;126704;1282;111276;-72
2022/12/06 02:56:07;;;;;;;50.40;28.10;;;;;;;4.35;83.10;100237.26;126813;1282;110201;-73
2022/12/06 02:59:10;;;;;;;55.20;30.70;;;;;;;4.41;83.15;100231.17;126902;1286;111195;-73
2022/12/06 03:02:13;;;;;;;57.40;34.00;;;;;;;4.46;83.07;100226.06;126870;1296;111158;-71
2022/12/06 03:05:22;;;;;;;66.20;41.00;;;;;;;4.50;83.05;100223.64;126902;1282;98166;-72
2022/12/06 03:08:35;;;;;;;52.30;30.90;;;;;;;4.54;82.85;100219.50;126907;1280;111215;-73
2022/12/06 03:11:48;;;;;;;44.10;27.40;;;;;;;4.53;83.05;100216.71;126754;1286;111238;-72
2022/12/06 03:14:58;;;;;;;51.50;29.50;;;;;;;4.54;82.92;100216.30;126732;1280;110951;-72
2022/12/06 03:18:08;;;;;;;47.60;26.70;;;;;;;4.54;82.90;100209.58;126633;1277;111282;-72
2022/12/06 03:21:17;;;;;;;43.70;26.00;;;;;;;4.53;82.90;100211.29;126593;1280;111199;-72
2022/12/06 03:24:21;;;;;;;40.00;24.00;;;;;;;4.50;82.96;100215.55;126472;1282;111178;-71
2022/12/06 03:27:26;;;;;;;44.90;24.20;;;;;;;4.49;82.91;100210.84;126687;1288;111195;-71
2022/12/06 03:30:31;;;;;;;42.50;25.60;;;;;;;4.54;83.04;100209.61;126625;1282;112495;-73
2022/12/06 03:33:39;;;;;;;45.30;27.00;;;;;;;4.58;83.05;100202.97;126601;1287;111226;-73
2022/12/06 03:36:44;;;;;;;49.00;28.80;;;;;;;4.61;82.88;100200.08;126625;1294;110183;-73
2022/12/06 03:39:56;;;;;;;47.20;29.20;;;;;;;4.62;82.97;100194.58;126690;1280;111172;-72
2022/12/06 03:43:00;;;;;;;51.30;31.00;;;;;;;4.62;82.78;100199.15;126885;1288;111170;-77
2022/12/06 03:46:07;;;;;;;54.40;27.70;;;;;;;4.61;82.86;100198.55;126714;1282;111295;-77
2022/12/06 03:49:14;;;;;;;45.90;27.90;;;;;;;4.60;82.86;100198.96;126606;1288;111223;-79
2022/12/06 03:52:17;;;;;;;47.70;25.50;;;;;;;4.59;82.98;100198.36;126887;1287;111188;-76
2022/12/06 03:55:20;;;;;;;46.80;25.00;;;;;;;4.57;82.96;100199.14;126914;1301;99515;-78
2022/12/06 03:58:23;;;;;;;44.00;23.90;;;;;;;4.58;83.10;100191.89;126850;1274;98663;-77
2022/12/06 04:01:25;;;;;;;47.10;26.90;;;;;;;4.58;83.04;100192.73;126910;1274;99121;-75
2022/12/06 04:04:28;;;;;;;57.50;30.60;;;;;;;4.61;82.95;100190.41;127035;1280;97992;-75
2022/12/06 04:07:31;;;;;;;58.40;32.40;;;;;;;4.65;83.00;100193.48;127060;1278;98010;-75
2022/12/06 04:10:33;;;;;;;50.90;30.20;;;;;;;4.66;82.91;100189.48;127205;1285;99172;-74
2022/12/06 04:13:36;;;;;;;52.00;28.80;;;;;;;4.65;82.83;100180.76;126986;1287;98185;-74
2022/12/06 04:20:00;;;;;;;48.10;27.40;;;;;;;4.59;82.85;100176.77;126967;1287;107542;-75
2022/12/06 04:23:02;;;;;;;52.10;27.30;;;;;;;4.56;83.00;100170.38;126767;1281;99166;-74
2022/12/06 04:26:07;;;;;;;44.70;25.70;;;;;;;4.55;83.01;100167.41;126720;1282;98064;-74
2022/12/06 04:39:19;;;;;;;50.60;26.80;;;;;;;4.56;82.98;100142.34;126847;1280;107847;-75
2022/12/06 04:45:42;;;;;;;52.30;30.30;;;;;;;4.55;82.83;100134.67;126732;1281;107420;-73
2022/12/06 04:48:45;;;;;;;51.20;28.60;;;;;;;4.53;83.10;100131.48;126988;1285;98595;-74
2022/12/06 04:51:48;;;;;;;49.70;27.70;;;;;;;4.53;82.94;100130.96;127150;1282;99174;-74
2022/12/06 04:54:50;;;;;;;47.50;25.50;;;;;;;4.54;82.92;100127.17;127004;1281;99166;-76
2022/12/06 04:57:53;;;;;;;48.30;25.40;;;;;;;4.54;83.03;100123.31;127054;1280;101513;-75
2022/12/06 05:00:56;;;;;;;49.90;26.60;;;;;;;4.56;83.07;100117.16;127069;1281;98343;-75
2022/12/06 05:03:59;;;;;;;50.80;27.80;;;;;;;4.61;82.99;100114.48;127040;1287;98032;-75
2022/12/06 05:07:01;;;;;;;53.20;27.60;;;;;;;4.62;82.93;100109.29;126891;1285;98050;-74
2022/12/06 05:10:07;;;;;;;53.10;29.70;;;;;;;4.62;82.78;100111.56;126749;1278;98511;-74
2022/12/06 05:13:09;;;;;;;58.20;30.40;;;;;;;4.59;82.90;100112.88;126709;1286;99176;-75
2022/12/06 05:16:12;;;;;;;53.30;28.40;;;;;;;4.57;82.85;100114.97;126642;1288;98774;-74
2022/12/06 05:19:15;;;;;;;54.50;30.00;;;;;;;4.51;82.98;100114.17;126677;1278;98000;-74
2022/12/06 05:22:18;;;;;;;49.40;29.10;;;;;;;4.47;83.07;100106.71;126820;1279;98853;-75
2022/12/06 05:25:21;;;;;;;63.30;34.80;;;;;;;4.47;83.13;100107.45;126608;1287;97968;-73
2022/12/06 05:28:23;;;;;;;59.60;33.10;;;;;;;4.48;83.12;100105.64;126597;1288;98009;-76
2022/12/06 05:31:26;;;;;;;57.90;31.40;;;;;;;4.50;83.21;100105.65;126595;1292;98796;-76
2022/12/06 05:34:29;;;;;;;50.10;28.70;;;;;;;4.51;82.95;100103.92;126608;1290;98768;-76
2022/12/06 05:37:32;;;;;;;55.20;30.10;;;;;;;4.52;83.02;100098.73;126681;1287;99133;-77
2022/12/06 05:40:34;;;;;;;55.00;28.70;;;;;;;4.53;83.09;100096.91;126889;1277;98029;-75
2022/12/06 05:43:37;;;;;;;54.30;29.10;;;;;;;4.53;83.18;100093.21;126604;1292;98341;-76
2022/12/06 05:46:39;;;;;;;53.20;28.50;;;;;;;4.50;82.90;100092.92;126605;1277;97985;-75
2022/12/06 05:49:42;;;;;;;52.60;29.80;;;;;;;4.46;82.99;100097.29;126636;1285;99180;-77
2022/12/06 05:52:45;;;;;;;57.60;28.60;;;;;;;4.43;83.14;100100.20;126629;1286;99154;-75
2022/12/06 05:55:48;;;;;;;50.10;26.00;;;;;;;4.40;83.12;100102.86;126607;1300;98009;-75
2022/12/06 05:58:51;;;;;;;47.80;24.30;;;;;;;4.40;83.32;100101.64;127348;1285;97989;-76
2022/12/06 06:01:54;;;;;;;50.00;27.60;;;;;;;4.42;83.27;100093.04;128133;1275;98642;-74
2022/12/06 06:04:56;;;;;;;65.30;32.20;;;;;;;4.43;83.12;100089.98;127616;1292;98681;-76
2022/12/06 06:07:59;;;;;;;65.10;33.80;;;;;;;4.43;83.15;100084.00;126733;1287;98754;-76
2022/12/06 06:11:02;;;;;;;56.50;30.50;;;;;;;4.43;83.13;100085.59;126725;1284;101503;-74
2022/12/06 06:14:04;;;;;;;55.00;28.50;;;;;;;4.43;83.21;100087.12;126639;1279;98137;-73
2022/12/06 06:17:07;;;;;;;53.50;28.80;;;;;;;4.43;83.24;100085.04;126665;1289;111250;-74
2022/12/06 06:20:13;;;;;;;66.40;30.40;;;;;;;4.41;83.20;100086.80;126644;1285;99138;-74
2022/12/06 06:23:15;;;;;;;114.20;43.50;;;;;;;4.40;83.16;100082.63;126729;1288;111044;-73
2022/12/06 06:26:18;;;;;;;66.40;29.00;;;;;;;4.42;83.23;100084.23;126559;1277;99139;-72
2022/12/06 06:29:20;;;;;;;77.60;33.60;;;;;;;4.45;83.21;100085.04;126569;1281;98422;-74
2022/12/06 06:32:23;;;;;;;119.20;46.10;;;;;;;4.48;83.15;100080.05;126784;1281;99601;-75
2022/12/06 06:35:26;;;;;;;105.10;42.90;;;;;;;4.52;83.05;100082.39;126723;1280;99163;-75
2022/12/06 06:38:28;;;;;;;92.30;41.10;;;;;;;4.52;83.11;100081.38;126652;1279;98050;-73
2022/12/06 06:41:31;;;;;;;69.00;33.10;;;;;;;4.52;83.08;100081.33;126666;1281;99183;-75
2022/12/06 06:44:34;;;;;;;86.20;42.50;;;;;;;4.50;83.13;100078.28;126875;1280;98279;-75
2022/12/06 06:47:36;;;;;;;77.60;35.10;;;;;;;4.49;83.08;100074.73;126795;1285;107585;-74
2022/12/06 06:50:39;;;;;;;86.70;38.70;;;;;;;4.46;83.16;100069.80;126593;1285;98641;-74
2022/12/06 06:53:42;;;;;;;102.90;42.50;;;;;;;4.45;83.22;100062.35;126808;1287;98124;-74
2022/12/06 06:56:45;;;;;;;143.90;53.40;;;;;;;4.48;83.29;100057.14;126673;1296;97975;-73
2022/12/06 06:59:47;;;;;;;73.90;35.10;;;;;;;4.54;83.27;100050.76;126647;1278;98007;-73
2022/12/06 07:02:50;;;;;;;87.90;41.10;;;;;;;4.59;82.97;100055.08;126617;1285;99150;-73
2022/12/06 07:05:54;;;;;;;182.30;72.50;;;;;;;4.62;83.24;100050.98;126607;1284;99163;-74
2022/12/06 07:08:56;;;;;;;134.00;53.00;;;;;;;4.62;83.08;100051.33;126725;1288;97973;-74
2022/12/06 07:11:59;;;;;;;164.20;58.70;;;;;;;4.61;83.29;100040.84;126756;1281;99135;-75
2022/12/06 07:15:01;;;;;;;123.40;47.00;;;;;;;4.62;83.13;100040.42;126598;1277;98009;-73
2022/12/06 07:18:04;;;;;;;166.90;60.00;;;;;;;4.62;83.35;100047.05;126695;1290;99069;-73
2022/12/06 07:21:09;;;;;;;84.60;36.60;;;;;;;4.59;83.43;100056.48;126655;1287;97979;-74
2022/12/06 07:24:12;;;;;;;114.40;43.90;;;;;;;4.59;83.20;100055.77;126789;1288;98952;-73
2022/12/06 07:27:15;;;;;;;110.30;41.50;;;;;;;4.60;83.28;100049.52;126665;1295;98046;-73
2022/12/06 07:30:18;;;;;;;61.70;30.20;;;;;;;4.62;83.25;100042.85;126726;1289;99496;-74
2022/12/06 07:33:21;;;;;;;88.40;38.30;;;;;;;4.66;83.34;100044.98;126561;1277;98017;-72
2022/12/06 07:36:25;;;;;;;77.10;34.90;;;;;;;4.70;83.35;100044.88;126606;1296;98677;-73
2022/12/06 07:39:28;;;;;;;59.50;31.80;;;;;;;4.74;83.29;100043.89;126623;1280;99060;-73
2022/12/06 07:45:51;;;;;;;59.20;31.70;;;;;;;4.75;83.38;100043.60;126593;1289;99166;-76
2022/12/06 07:48:54;;;;;;;56.40;30.70;;;;;;;4.73;83.40;100044.84;126609;1287;99121;-74
2022/12/06 07:51:57;;;;;;;161.50;57.90;;;;;;;4.72;83.44;100048.27;126632;1296;98770;-72
2022/12/06 07:55:00;;;;;;;68.00;31.50;;;;;;;4.72;83.39;100044.01;126675;1281;98010;-73
2022/12/06 07:58:02;;;;;;;68.30;33.70;;;;;;;4.74;83.40;100047.23;126662;1277;99162;-75
2022/12/06 08:01:05;;;;;;;56.90;28.00;;;;;;;4.79;83.38;100056.02;126738;1282;98063;-75
2022/12/06 08:04:08;;;;;;;50.60;26.50;;;;;;;4.82;83.44;100058.73;126749;1273;97993;-76
2022/12/06 08:07:11;;;;;;;85.20;39.00;;;;;;;4.83;83.24;100054.27;126593;1274;99045;-76
2022/12/06 08:10:14;;;;;;;91.90;39.80;;;;;;;4.82;83.37;100054.91;126625;1281;99161;-75
2022/12/06 08:13:16;;;;;;;59.80;29.90;;;;;;;4.81;83.38;100055.64;126623;1288;98007;-75
2022/12/06 08:16:19;;;;;;;69.30;32.20;;;;;;;4.79;83.31;100053.21;126770;1277;98001;-76
2022/12/06 08:19:22;;;;;;;79.50;39.20;;;;;;;4.79;83.34;100052.84;127336;1286;97984;-78
2022/12/06 08:22:25;;;;;;;68.00;33.50;;;;;;;4.81;83.26;100055.48;127845;1290;97961;-77
2022/12/06 08:25:27;;;;;;;76.40;37.90;;;;;;;4.86;83.51;100055.29;126905;1288;99137;-77
2022/12/06 08:28:31;;;;;;;83.40;44.60;;;;;;;4.92;83.36;100054.09;126881;1288;99138;-75
2022/12/06 08:31:34;;;;;;;113.30;61.10;;;;;;;4.97;83.57;100052.64;127078;1282;98634;-76
2022/12/06 08:34:37;;;;;;;70.90;36.90;;;;;;;4.99;83.40;100049.95;126955;1281;98291;-77
2022/12/06 08:37:40;;;;;;;84.70;35.90;;;;;;;4.96;83.39;100049.00;126831;1282;98529;-76
2022/12/06 08:40:42;;;;;;;95.90;43.20;;;;;;;4.96;83.31;100049.23;126956;1282;99109;-75
2022/12/06 08:43:45;;;;;;;86.60;39.70;;;;;;;4.94;83.48;100043.50;126847;1286;98115;-75
2022/12/06 08:46:48;;;;;;;73.50;33.20;;;;;;;4.94;83.40;100041.10;126627;1283;98063;-75
2022/12/06 08:49:51;;;;;;;48.30;25.70;;;;;;;4.93;83.27;100037.27;126703;1280;98586;-73
2022/12/06 08:52:53;;;;;;;53.00;27.60;;;;;;;4.92;83.21;100038.92;127532;1279;99161;-74
2022/12/06 08:55:57;;;;;;;60.80;32.00;;;;;;;4.95;83.44;100034.16;126965;1280;98013;-72
2022/12/06 08:59:00;;;;;;;49.10;27.00;;;;;;;4.97;83.48;100030.73;127046;1281;98339;-76
2022/12/06 09:02:03;;;;;;;67.40;32.80;;;;;;;5.02;83.35;100029.52;126742;1287;98953;-75
2022/12/06 09:05:06;;;;;;;61.40;30.30;;;;;;;5.04;83.60;100030.00;126707;1277;99048;-74
2022/12/06 09:08:09;;;;;;;82.50;38.50;;;;;;;5.08;83.51;100023.73;126698;1288;98095;-75
2022/12/06 09:11:12;;;;;;;91.80;41.50;;;;;;;5.10;83.38;100020.02;126692;1282;98077;-75
2022/12/06 09:14:17;;;;;;;77.00;35.80;;;;;;;5.13;83.48;100015.73;126632;1281;99156;-74
2022/12/06 09:17:19;;;;;;;46.40;25.20;;;;;;;5.14;83.44;100014.42;126775;1288;97964;-75
2022/12/06 09:20:22;;;;;;;38.70;22.40;;;;;;;5.12;83.45;100011.96;126525;1288;98975;-74
2022/12/06 09:23:26;;;;;;;35.70;21.00;;;;;;;5.13;83.72;100008.18;126594;1279;99145;-74
2022/12/06 09:26:28;;;;;;;37.80;21.80;;;;;;;5.15;83.45;99998.30;126894;1279;97986;-77
2022/12/06 09:29:33;;;;;;;32.60;20.30;;;;;;;5.17;83.53;99995.34;126845;1280;99188;-74
2022/12/06 09:32:36;;;;;;;31.70;19.90;;;;;;;5.18;83.32;99990.69;126830;1278;99035;-76
2022/12/06 09:35:38;;;;;;;34.50;19.80;;;;;;;5.16;83.24;99989.75;126944;1281;98014;-75
2022/12/06 09:38:43;;;;;;;31.30;19.30;;;;;;;5.16;83.34;99986.90;126966;1279;99249;-76
2022/12/06 09:42:05;;;;;;;31.10;19.60;;;;;;;5.15;83.39;99983.67;126986;1278;99147;-76
2022/12/06 09:45:28;;;;;;;27.80;18.20;;;;;;;5.15;83.37;99980.90;126929;1278;98011;-75
2022/12/06 09:48:50;;;;;;;24.50;14.60;;;;;;;5.10;83.36;99972.59;126681;1281;98742;-77
2022/12/06 09:52:18;;;;;;;23.80;14.50;;;;;;;5.12;83.44;99969.09;126694;1285;97997;-77
2022/12/06 09:55:43;;;;;;;25.10;16.00;;;;;;;5.17;83.49;99960.98;126810;1280;99154;-75
2022/12/06 09:59:01;;;;;;;27.30;16.80;;;;;;;5.23;83.46;99962.05;126840;1281;98080;-74
2022/12/06 10:02:23;;;;;;;30.10;19.00;;;;;;;5.29;83.31;99959.77;126806;1288;98474;-74
2022/12/06 10:05:37;;;;;;;34.60;22.20;;;;;;;5.34;83.08;99956.20;126970;1280;98202;-75
2022/12/06 10:08:54;;;;;;;31.30;20.20;;;;;;;5.36;83.04;99953.17;126939;1296;99143;-74
2022/12/06 10:12:18;;;;;;;25.30;16.10;;;;;;;5.38;83.24;99951.10;126928;1280;99108;-75
2022/12/06 10:15:31;;;;;;;25.30;15.60;;;;;;;5.29;82.90;99943.71;126540;1280;99150;-74
2022/12/06 10:18:49;;;;;;;26.50;16.50;;;;;;;5.18;83.03;99940.96;126819;1280;99168;-75
2022/12/06 10:22:03;;;;;;;26.10;15.50;;;;;;;5.12;83.45;99933.98;126871;1282;98019;-75
2022/12/06 10:25:12;;;;;;;34.40;20.00;;;;;;;5.13;83.45;99929.00;126588;1281;98015;-73
2022/12/06 10:28:27;;;;;;;31.30;18.60;;;;;;;5.19;83.19;99915.14;126678;1280;98796;-74
2022/12/06 10:31:41;;;;;;;26.90;18.00;;;;;;;5.23;83.08;99907.52;126841;1281;99137;-74
2022/12/06 10:34:54;;;;;;;32.80;22.30;;;;;;;5.19;83.13;99900.68;126877;1281;98074;-76
2022/12/06 10:38:10;;;;;;;31.60;20.60;;;;;;;5.15;83.11;99893.91;126837;1280;98747;-76
2022/12/06 10:41:20;;;;;;;31.60;20.40;;;;;;;5.14;83.29;99894.38;126941;1280;99176;-76
2022/12/06 10:44:31;;;;;;;39.40;25.10;;;;;;;5.15;83.53;99888.94;126927;1280;98005;-75
2022/12/06 10:47:41;;;;;;;52.40;37.90;;;;;;;5.11;83.16;99887.73;126882;1277;99172;-75
2022/12/06 10:50:50;;;;;;;52.90;36.70;;;;;;;5.00;83.40;99887.52;126694;1282;98002;-75
2022/12/06 10:54:01;;;;;;;57.90;40.50;;;;;;;4.92;83.41;99886.31;126633;1288;98283;-74
2022/12/06 10:57:10;;;;;;;36.40;23.70;;;;;;;4.79;83.55;99881.70;126646;1281;97972;-75
2022/12/06 11:00:17;;;;;;;25.00;16.50;;;;;;;4.79;83.91;99874.84;126622;1277;98984;-73
2022/12/06 11:03:28;;;;;;;23.20;16.20;;;;;;;4.83;83.84;99871.49;127439;1293;98023;-74
2022/12/06 11:06:36;;;;;;;23.50;16.60;;;;;;;4.89;83.94;99870.46;126634;1287;98855;-74
2022/12/06 11:09:42;;;;;;;25.70;16.80;;;;;;;4.93;83.90;99862.59;126688;1296;99024;-75
2022/12/06 11:12:47;;;;;;;27.90;17.40;;;;;;;4.97;83.99;99858.89;126705;1279;98958;-76
2022/12/06 11:15:55;;;;;;;31.20;19.70;;;;;;;5.05;83.95;99858.06;127002;1286;98012;-76
2022/12/06 11:19:13;;;;;;;28.90;18.20;;;;;;;5.10;83.67;99854.28;127029;1280;98455;-76
2022/12/06 11:22:26;;;;;;;44.20;22.90;;;;;;;5.12;83.75;99855.55;126774;1287;98066;-76
2022/12/06 11:25:37;;;;;;;43.50;22.90;;;;;;;5.14;83.75;99847.80;126903;1280;98079;-76
2022/12/06 11:28:43;;;;;;;34.30;21.10;;;;;;;5.21;83.80;99847.58;126843;1280;99161;-76
2022/12/06 11:31:48;;;;;;;34.80;21.70;;;;;;;5.28;83.77;99843.26;126958;1279;99150;-75
2022/12/06 11:34:52;;;;;;;54.30;34.20;;;;;;;5.31;83.82;99839.13;126626;1288;101187;-75
2022/12/06 11:37:59;;;;;;;57.10;34.30;;;;;;;5.37;83.72;99836.55;126574;1281;99276;-76
2022/12/06 11:41:04;;;;;;;55.10;31.70;;;;;;;5.37;83.76;99834.02;126701;1281;99051;-75
2022/12/06 11:44:12;;;;;;;55.70;32.80;;;;;;;5.37;83.47;99834.06;126772;1278;97981;-75
2022/12/06 11:47:20;;;;;;;60.10;33.50;;;;;;;5.37;83.52;99829.34;126665;1288;98637;-74
2022/12/06 11:50:27;;;;;;;51.60;29.90;;;;;;;5.37;83.65;99829.69;126644;1278;98080;-74
2022/12/06 11:53:36;;;;;;;46.60;27.00;;;;;;;5.37;83.63;99828.39;126702;1281;99055;-76
2022/12/06 11:56:39;;;;;;;142.60;55.60;;;;;;;5.42;83.80;99826.94;126696;1282;98032;-74
2022/12/06 12:00:14;;;;;;;117.50;48.80;;;;;;;5.46;83.62;99828.30;126669;1288;98316;-75
2022/12/06 12:03:27;;;;;;;64.60;33.10;;;;;;;5.51;83.41;99822.12;126760;1296;97934;-75
2022/12/06 12:06:32;;;;;;;50.50;29.40;;;;;;;5.54;83.51;99819.95;126731;1280;98327;-75
2022/12/06 12:09:45;;;;;;;51.80;30.70;;;;;;;5.56;83.40;99819.02;126670;1277;98806;-74
2022/12/06 12:16:22;;;;;;;171.10;77.90;;;;;;;5.52;83.53;99808.44;126656;1287;98724;-74
2022/12/06 12:19:34;;;;;;;131.50;64.90;;;;;;;5.50;83.50;99810.33;126750;1282;99138;-75
2022/12/06 12:22:41;;;;;;;109.10;57.10;;;;;;;5.47;83.61;99806.20;126657;1282;98113;-74
2022/12/06 12:25:59;;;;;;;84.50;44.00;;;;;;;5.40;83.44;99808.95;126740;1280;98064;-76
2022/12/06 12:29:15;;;;;;;95.70;48.60;;;;;;;5.37;83.72;99804.93;126733;1280;98021;-75
2022/12/06 12:32:18;;;;;;;90.80;45.00;;;;;;;5.41;83.91;99803.05;126742;1277;98010;-75
2022/12/06 12:35:28;;;;;;;62.10;33.70;;;;;;;5.44;83.77;99796.39;126669;1289;99150;-75
2022/12/06 12:38:37;;;;;;;60.90;33.80;;;;;;;5.47;83.62;99795.45;126677;1288;99140;-75
2022/12/06 12:41:43;;;;;;;84.50;44.70;;;;;;;5.50;83.78;99792.39;126681;1286;99100;-75
2022/12/06 12:44:46;;;;;;;50.40;30.60;;;;;;;5.51;83.81;99792.47;126689;1280;98739;-75
2022/12/06 12:48:00;;;;;;;45.80;28.90;;;;;;;5.49;83.70;99790.54;126625;1288;98747;-74
2022/12/06 12:51:05;;;;;;;32.50;19.80;;;;;;;5.45;83.79;99788.89;126586;1274;99199;-75
2022/12/06 12:54:21;;;;;;;25.10;16.90;;;;;;;5.42;83.91;99786.55;126600;1274;98021;-75
2022/12/06 12:57:24;;;;;;;40.00;26.10;;;;;;;5.40;83.73;99778.77;126611;1278;99145;-74
2022/12/06 13:00:30;;;;;;;28.30;19.20;;;;;;;5.43;83.67;99774.58;126668;1281;97972;-76
2022/12/06 13:03:33;;;;;;;27.30;17.70;;;;;;;5.48;83.76;99769.20;126780;1278;98091;-78
2022/12/06 13:06:45;;;;;;;25.40;17.10;;;;;;;5.54;83.57;99764.91;127350;1278;99163;-75
2022/12/06 13:09:56;;;;;;;27.10;18.80;;;;;;;5.56;83.46;99761.52;127079;1281;98090;-75
2022/12/06 13:13:01;;;;;;;51.00;34.10;;;;;;;5.58;83.20;99763.14;127199;1280;98641;-75
2022/12/06 13:16:11;;;;;;;31.00;21.10;;;;;;;5.59;83.64;99757.40;126906;1286;98010;-77
2022/12/06 13:19:17;;;;;;;31.20;19.00;;;;;;;5.58;83.30;99757.31;126603;1274;98306;-73
2022/12/06 13:22:25;;;;;;;35.90;19.10;;;;;;;5.57;83.39;99755.61;126628;1288;98095;-74
2022/12/06 13:25:28;;;;;;;33.40;19.70;;;;;;;5.57;83.24;99755.61;126694;1278;98628;-75
2022/12/06 13:28:39;;;;;;;36.90;23.60;;;;;;;5.57;83.12;99753.64;126711;1277;97983;-77
2022/12/06 13:31:43;;;;;;;25.50;17.80;;;;;;;5.59;83.45;99753.83;126762;1288;98070;-76
2022/12/06 13:34:50;;;;;;;26.40;18.00;;;;;;;5.60;83.45;99752.31;126756;1288;98069;-77
2022/12/06 13:37:55;;;;;;;20.00;14.00;;;;;;;5.59;83.42;99749.98;126742;1274;98942;-75
2022/12/06 13:40:59;;;;;;;20.80;15.10;;;;;;;5.58;83.28;99748.87;126629;1274;99035;-74
2022/12/06 13:44:02;;;;;;;23.60;15.60;;;;;;;5.56;83.05;99749.89;126712;1288;97950;-74
2022/12/06 13:47:37;;;;;;;24.90;18.00;;;;;;;5.55;83.40;99751.21;126651;1287;98556;-74
2022/12/06 13:50:54;;;;;;;24.00;14.80;;;;;;;5.53;83.50;99749.25;126640;1288;98032;-75
2022/12/06 13:54:29;;;;;;;28.90;19.90;;;;;;;5.49;83.35;99748.36;126684;1274;99144;-76
2022/12/06 13:57:32;;;;;;;22.50;14.60;;;;;;;5.39;83.47;99749.53;126712;1281;99119;-75
2022/12/06 14:00:49;;;;;;;20.40;13.20;;;;;;;5.40;83.36;99746.32;126865;1281;98480;-77
2022/12/06 14:03:56;;;;;;;21.00;13.70;;;;;;;5.43;83.45;99741.80;126753;1273;98000;-79
2022/12/06 14:07:01;;;;;;;25.90;17.80;;;;;;;5.46;83.52;99732.39;126830;1294;97966;-76
2022/12/06 14:10:13;;;;;;;30.60;19.30;;;;;;;5.48;83.47;99731.87;126876;1280;98016;-78
2022/12/06 14:13:19;;;;;;;29.70;17.80;;;;;;;5.49;83.36;99729.63;126762;1274;98042;-73
2022/12/06 14:16:34;;;;;;;35.80;22.30;;;;;;;5.49;83.25;99731.24;127088;1288;99026;-74
2022/12/06 14:19:42;;;;;;;37.80;23.70;;;;;;;5.47;83.50;99732.98;126902;1281;97991;-73
2022/12/06 14:22:47;;;;;;;42.40;25.40;;;;;;;5.43;83.31;99730.50;126810;1274;98005;-75
2022/12/06 14:25:50;;;;;;;64.90;33.10;;;;;;;5.38;83.36;99732.59;126629;1280;98008;-72
2022/12/06 14:28:55;;;;;;;48.70;24.80;;;;;;;5.33;83.25;99729.63;126612;1280;98972;-73
2022/12/06 14:31:58;;;;;;;44.40;25.30;;;;;;;5.30;83.65;99726.92;126815;1280;97968;-74